Observation data for Goodlett on 07/17/2019      Previous  Date  Next       Current Mesonet Observations  Soil Data  Daily Summary Page  Observations in Plain Language
KGDS 170500Z 15009KT 30/18 A2993 RMK A01 T02970183  RH  053%=      5-min Rain = 0
KGDS 170505Z 15010KT 30/18 A2993 RMK A01 T02970183  RH  053%=      5-min Rain = 0
KGDS 170510Z 15010KT 30/18 A2993 RMK A01 T02960183  RH  054%=      5-min Rain = 0
KGDS 170515Z 15010KT 30/18 A2993 RMK A01 T02960184  RH  054%=      5-min Rain = 0
KGDS 170520Z 15011KT 30/19 A2993 RMK A01 T02950185  RH  054%=      5-min Rain = 0
KGDS 170525Z 15010KT 30/18 A2993 RMK A01 T02950184  RH  054%=      5-min Rain = 0
KGDS 170530Z 16009G14KT 29/18 A2993 RMK A01 T02930184  RH  055%=      5-min Rain = 0
KGDS 170535Z 16010KT 29/19 A2993 RMK A01 T02930185  RH  055%=      5-min Rain = 0
KGDS 170540Z 16009KT 29/19 A2993 RMK A01 T02930185  RH  055%=      5-min Rain = 0
KGDS 170545Z 16010KT 29/19 A2993 RMK A01 T02920185  RH  055%=      5-min Rain = 0
KGDS 170550Z 15010KT 29/19 A2993 RMK A01 T02920185  RH  056%=      5-min Rain = 0
KGDS 170555Z 16009KT 29/19 A2993 RMK A01 T02910186  RH  056%=      5-min Rain = 0
KGDS 170600Z 16010KT 29/19 A2993 RMK A01 T02910187  RH  056%=      5-min Rain = 0
KGDS 170605Z 16010KT 29/19 A2993 RMK A01 T02910187  RH  056%=      5-min Rain = 0
KGDS 170610Z 16010KT 29/19 A2993 RMK A01 T02900187  RH  057%=      5-min Rain = 0
KGDS 170615Z 16009KT 29/19 A2993 RMK A01 T02890187  RH  057%=      5-min Rain = 0
KGDS 170620Z 16009KT 29/19 A2993 RMK A01 T02880187  RH  057%=      5-min Rain = 0
KGDS 170625Z 16009KT 29/19 A2993 RMK A01 T02880188  RH  058%=      5-min Rain = 0
KGDS 170630Z 16009KT 29/19 A2993 RMK A01 T02860188  RH  058%=      5-min Rain = 0
KGDS 170635Z 17009KT 29/19 A2993 RMK A01 T02860188  RH  059%=      5-min Rain = 0
KGDS 170640Z 16010KT 29/19 A2993 RMK A01 T02860188  RH  059%=      5-min Rain = 0
KGDS 170645Z 16010KT 29/19 A2992 RMK A01 T02850188  RH  059%=      5-min Rain = 0
KGDS 170650Z 16010KT 28/19 A2992 RMK A01 T02840188  RH  059%=      5-min Rain = 0
KGDS 170655Z 16011KT 28/19 A2992 RMK A01 T02840188  RH  059%=      5-min Rain = 0
KGDS 170700Z 16010KT 28/19 A2991 RMK A01 T02830188  RH  059%=      5-min Rain = 0
KGDS 170705Z 16010KT 28/19 A2991 RMK A01 T02830188  RH  059%=      5-min Rain = 0
KGDS 170710Z 16010KT 28/19 A2991 RMK A01 T02820188  RH  060%=      5-min Rain = 0
KGDS 170715Z 16011KT 28/19 A2991 RMK A01 T02820187  RH  060%=      5-min Rain = 0
KGDS 170720Z 17010KT 28/19 A2991 RMK A01 T02820187  RH  060%=      5-min Rain = 0
KGDS 170725Z 17011KT 28/19 A2991 RMK A01 T02810187  RH  060%=      5-min Rain = 0
KGDS 170730Z 17011KT 28/19 A2991 RMK A01 T02820186  RH  059%=      5-min Rain = 0
KGDS 170735Z 17011KT 28/19 A2991 RMK A01 T02810186  RH  059%=      5-min Rain = 0
KGDS 170740Z 17012KT 28/19 A2991 RMK A01 T02830185  RH  059%=      5-min Rain = 0
KGDS 170745Z 17011KT 28/19 A2991 RMK A01 T02830185  RH  058%=      5-min Rain = 0
KGDS 170750Z 17012KT 28/19 A2991 RMK A01 T02830185  RH  058%=      5-min Rain = 0
KGDS 170755Z 17012KT 28/19 A2991 RMK A01 T02830185  RH  058%=      5-min Rain = 0
KGDS 170800Z 18011KT 28/18 A2991 RMK A01 T02820184  RH  058%=      5-min Rain = 0
KGDS 170805Z 18011KT 28/18 A2991 RMK A01 T02820184  RH  058%=      5-min Rain = 0
KGDS 170810Z 17011KT 28/18 A2991 RMK A01 T02810184  RH  059%=      5-min Rain = 0
KGDS 170815Z 17011KT 28/18 A2991 RMK A01 T02800184  RH  059%=      5-min Rain = 0
KGDS 170820Z 17011G16KT 28/18 A2991 RMK A01 T02800184  RH  059%=      5-min Rain = 0
KGDS 170825Z 18010KT 28/18 A2991 RMK A01 T02790184  RH  059%=      5-min Rain = 0
KGDS 170830Z 18010KT 28/18 A2991 RMK A01 T02780183  RH  059%=      5-min Rain = 0
KGDS 170835Z 17010KT 28/18 A2991 RMK A01 T02770183  RH  060%=      5-min Rain = 0
KGDS 170840Z 17010KT 28/18 A2991 RMK A01 T02770183  RH  060%=      5-min Rain = 0
KGDS 170845Z 18011KT 28/18 A2991 RMK A01 T02760183  RH  060%=      5-min Rain = 0
KGDS 170850Z 18009KT 28/18 A2991 RMK A01 T02760183  RH  060%=      5-min Rain = 0
KGDS 170855Z 18009KT 28/18 A2991 RMK A01 T02750183  RH  060%=      5-min Rain = 0
KGDS 170900Z 18009KT 28/18 A2991 RMK A01 T02750183  RH  060%=      5-min Rain = 0
KGDS 170905Z 18008KT 27/18 A2991 RMK A01 T02740183  RH  061%=      5-min Rain = 0
KGDS 170910Z 19007KT 27/18 A2992 RMK A01 T02720182  RH  061%=      5-min Rain = 0
KGDS 170915Z 19006KT 27/18 A2992 RMK A01 T02700182  RH  062%=      5-min Rain = 0
KGDS 170920Z 19007KT 27/18 A2992 RMK A01 T02690182  RH  062%=      5-min Rain = 0
KGDS 170925Z 20006KT 27/18 A2992 RMK A01 T02670182  RH  063%=      5-min Rain = 0
KGDS 170930Z 20007KT 27/18 A2992 RMK A01 T02670182  RH  063%=      5-min Rain = 0
KGDS 170935Z 19007KT 27/18 A2992 RMK A01 T02660182  RH  063%=      5-min Rain = 0
KGDS 170940Z 19007KT 27/18 A2992 RMK A01 T02660182  RH  063%=      5-min Rain = 0
KGDS 170945Z 18008KT 26/18 A2992 RMK A01 T02640182  RH  064%=      5-min Rain = 0
KGDS 170950Z 18008KT 26/18 A2992 RMK A01 T02620182  RH  065%=      5-min Rain = 0
KGDS 170955Z 18008KT 26/18 A2992 RMK A01 T02620181  RH  065%=      5-min Rain = 0
KGDS 171000Z 18008KT 26/18 A2992 RMK A01 T02620181  RH  065%=      5-min Rain = 0
KGDS 171005Z 17008KT 26/18 A2992 RMK A01 T02600182  RH  065%=      5-min Rain = 0
KGDS 171010Z 17008KT 26/18 A2992 RMK A01 T02590181  RH  066%=      5-min Rain = 0
KGDS 171015Z 17008KT 26/18 A2992 RMK A01 T02590181  RH  066%=      5-min Rain = 0
KGDS 171020Z 17008KT 26/18 A2992 RMK A01 T02600181  RH  065%=      5-min Rain = 0
KGDS 171025Z 17009KT 26/18 A2992 RMK A01 T02610181  RH  065%=      5-min Rain = 0
KGDS 171030Z 18008KT 26/18 A2992 RMK A01 T02620181  RH  065%=      5-min Rain = 0
KGDS 171035Z 18009KT 26/18 A2992 RMK A01 T02620181  RH  064%=      5-min Rain = 0
KGDS 171040Z 18008KT 26/18 A2993 RMK A01 T02620181  RH  064%=      5-min Rain = 0
KGDS 171045Z 17008KT 26/18 A2993 RMK A01 T02610181  RH  065%=      5-min Rain = 0
KGDS 171050Z 18007KT 26/18 A2993 RMK A01 T02600181  RH  065%=      5-min Rain = 0
KGDS 171055Z 18007KT 26/18 A2993 RMK A01 T02580181  RH  066%=      5-min Rain = 0
KGDS 171100Z 17007KT 26/18 A2993 RMK A01 T02570181  RH  066%=      5-min Rain = 0
KGDS 171105Z 17007KT 26/18 A2994 RMK A01 T02550181  RH  067%=      5-min Rain = 0
KGDS 171110Z 17006KT 25/18 A2994 RMK A01 T02540181  RH  067%=      5-min Rain = 0
KGDS 171115Z 17006KT 25/18 A2994 RMK A01 T02530181  RH  068%=      5-min Rain = 0
KGDS 171120Z 17007KT 25/18 A2994 RMK A01 T02520181  RH  068%=      5-min Rain = 0
KGDS 171125Z 16007KT 25/18 A2994 RMK A01 T02520182  RH  069%=      5-min Rain = 0
KGDS 171130Z 17007KT 25/18 A2994 RMK A01 T02530182  RH  068%=      5-min Rain = 0
KGDS 171135Z 17007KT 25/18 A2994 RMK A01 T02530182  RH  069%=      5-min Rain = 0
KGDS 171140Z 17006KT 25/18 A2994 RMK A01 T02520182  RH  069%=      5-min Rain = 0
KGDS 171145Z 17006KT 25/18 A2994 RMK A01 T02520182  RH  069%=      5-min Rain = 0
KGDS 171150Z 18006KT 25/18 A2994 RMK A01 T02520183  RH  069%=      5-min Rain = 0
KGDS 171155Z 18006KT 25/18 A2994 RMK A01 T02530183  RH  069%=      5-min Rain = 0
KGDS 171200Z 18006KT 25/18 A2994 RMK A01 T02540184  RH  068%=      5-min Rain = 0
KGDS 171205Z 18007KT 26/18 A2995 RMK A01 T02550184  RH  068%=      5-min Rain = 0
KGDS 171210Z 18006KT 26/18 A2995 RMK A01 T02560184  RH  068%=      5-min Rain = 0
KGDS 171215Z 17007KT 26/18 A2995 RMK A01 T02560184  RH  068%=      5-min Rain = 0
KGDS 171220Z 17008KT 26/19 A2995 RMK A01 T02560185  RH  068%=      5-min Rain = 0
KGDS 171225Z 17008KT 25/19 A2995 RMK A01 T02540185  RH  069%=      5-min Rain = 0
KGDS 171230Z 17008KT 26/19 A2996 RMK A01 T02550186  RH  069%=      5-min Rain = 0
KGDS 171235Z 17007KT 26/19 A2996 RMK A01 T02590186  RH  068%=      5-min Rain = 0
KGDS 171240Z 17007KT 26/19 A2996 RMK A01 T02610187  RH  067%=      5-min Rain = 0
KGDS 171245Z 18007KT 26/19 A2996 RMK A01 T02640188  RH  066%=      5-min Rain = 0
KGDS 171250Z 18009KT 27/19 A2996 RMK A01 T02650188  RH  066%=      5-min Rain = 0
KGDS 171255Z 18010KT 27/19 A2996 RMK A01 T02680189  RH  065%=      5-min Rain = 0
KGDS 171300Z 18010KT 27/19 A2996 RMK A01 T02710190  RH  064%=      5-min Rain = 0
KGDS 171305Z 18010KT 27/19 A2997 RMK A01 T02740190  RH  064%=      5-min Rain = 0
KGDS 171310Z 18012G17KT 28/19 A2997 RMK A01 T02750191  RH  063%=      5-min Rain = 0
KGDS 171315Z 18011KT 28/19 A2997 RMK A01 T02790192  RH  063%=      5-min Rain = 0
KGDS 171320Z 19013KT 28/19 A2997 RMK A01 T02810192  RH  062%=      5-min Rain = 0
KGDS 171325Z 19013KT 28/19 A2997 RMK A01 T02810192  RH  062%=      5-min Rain = 0
KGDS 171330Z 19011G16KT 28/19 A2997 RMK A01 T02830193  RH  062%=      5-min Rain = 0
KGDS 171335Z 20012KT 29/19 A2997 RMK A01 T02870194  RH  061%=      5-min Rain = 0
KGDS 171340Z 19012KT 29/19 A2997 RMK A01 T02870194  RH  061%=      5-min Rain = 0
KGDS 171345Z 19013KT 29/20 A2997 RMK A01 T02880195  RH  060%=      5-min Rain = 0
KGDS 171350Z 19013KT 29/20 A2997 RMK A01 T02890195  RH  060%=      5-min Rain = 0
KGDS 171355Z 20012KT 29/20 A2997 RMK A01 T02920196  RH  059%=      5-min Rain = 0
KGDS 171400Z 20014G20KT 30/20 A2997 RMK A01 T02950196  RH  058%=      5-min Rain = 0
KGDS 171405Z 20014KT 30/20 A2997 RMK A01 T02970196  RH  058%=      5-min Rain = 0
KGDS 171410Z 21015KT 30/20 A2997 RMK A01 T03020196  RH  056%=      5-min Rain = 0
KGDS 171415Z 20015KT 31/20 A2997 RMK A01 T03060197  RH  055%=      5-min Rain = 0
KGDS 171420Z 20017G22KT 31/20 A2997 RMK A01 T03050196  RH  055%=      5-min Rain = 0
KGDS 171425Z 21017KT 31/20 A2997 RMK A01 T03060196  RH  055%=      5-min Rain = 0
KGDS 171430Z 21016G21KT 31/20 A2997 RMK A01 T03080196  RH  054%=      5-min Rain = 0
KGDS 171435Z 20016KT 31/20 A2997 RMK A01 T03060195  RH  055%=      5-min Rain = 0
KGDS 171440Z 21017KT 31/20 A2997 RMK A01 T03060195  RH  055%=      5-min Rain = 0
KGDS 171445Z 21015G21KT 31/20 A2997 RMK A01 T03060195  RH  055%=      5-min Rain = 0
KGDS 171450Z 20016KT 31/20 A2997 RMK A01 T03090195  RH  054%=      5-min Rain = 0
KGDS 171455Z 21015KT 31/19 A2997 RMK A01 T03100194  RH  053%=      5-min Rain = 0
KGDS 171500Z 21014KT 31/20 A2997 RMK A01 T03110196  RH  053%=      5-min Rain = 0
KGDS 171505Z 21014G19KT 31/20 A2997 RMK A01 T03120196  RH  053%=      5-min Rain = 0
KGDS 171510Z 19016KT 31/20 A2997 RMK A01 T03130196  RH  053%=      5-min Rain = 0
KGDS 171515Z 21015G20KT 31/20 A2997 RMK A01 T03130196  RH  053%=      5-min Rain = 0
KGDS 171520Z 21013KT 31/20 A2997 RMK A01 T03120196  RH  053%=      5-min Rain = 0
KGDS 171525Z 21013KT 31/20 A2997 RMK A01 T03140197  RH  053%=      5-min Rain = 0
KGDS 171530Z 20014G19KT 32/20 A2997 RMK A01 T03150197  RH  053%=      5-min Rain = 0
KGDS 171535Z 20015KT 32/20 A2997 RMK A01 T03150197  RH  053%=      5-min Rain = 0
KGDS 171540Z 20015G20KT 32/20 A2997 RMK A01 T03190198  RH  052%=      5-min Rain = 0
KGDS 171545Z 20016KT 32/20 A2997 RMK A01 T03210198  RH  051%=      5-min Rain = 0
KGDS 171550Z 21015KT 32/20 A2997 RMK A01 T03240198  RH  050%=      5-min Rain = 0
KGDS 171555Z 20015G21KT 33/20 A2997 RMK A01 T03250198  RH  050%=      5-min Rain = 0
KGDS 171600Z 20018KT 33/20 A2997 RMK A01 T03300196  RH  048%=      5-min Rain = 0
KGDS 171605Z 20018KT 33/20 A2997 RMK A01 T03280195  RH  048%=      5-min Rain = 0
KGDS 171610Z 21016G23KT 33/20 A2996 RMK A01 T03330196  RH  047%=      5-min Rain = 0
KGDS 171615Z 19015G20KT 34/20 A2996 RMK A01 T03370198  RH  047%=      5-min Rain = 0
KGDS 171620Z 19017G22KT 34/20 A2996 RMK A01 T03360196  RH  046%=      5-min Rain = 0
KGDS 171625Z 20015G22KT 34/20 A2996 RMK A01 T03370196  RH  046%=      5-min Rain = 0
KGDS 171630Z 20015G20KT 34/20 A2996 RMK A01 T03370195  RH  046%=      5-min Rain = 0
KGDS 171635Z 21015G20KT 34/20 A2996 RMK A01 T03400195  RH  045%=      5-min Rain = 0
KGDS 171640Z 21015KT 35/19 A2996 RMK A01 T03470194  RH  043%=      5-min Rain = 0
KGDS 171645Z 20016G21KT 35/19 A2996 RMK A01 T03450194  RH  043%=      5-min Rain = 0
KGDS 171650Z 19014G19KT 35/20 A2996 RMK A01 T03450195  RH  044%=      5-min Rain = 0
KGDS 171655Z 19014G19KT 35/20 A2996 RMK A01 T03490196  RH  043%=      5-min Rain = 0
KGDS 171700Z 20015G21KT 35/20 A2996 RMK A01 T03510195  RH  042%=      5-min Rain = 0
KGDS 171705Z 19014G21KT 35/20 A2996 RMK A01 T03460196  RH  044%=      5-min Rain = 0
KGDS 171710Z 19017G22KT 35/19 A2996 RMK A01 T03460194  RH  043%=      5-min Rain = 0
KGDS 171715Z 19015G21KT 35/19 A2996 RMK A01 T03490193  RH  042%=      5-min Rain = 0
KGDS 171720Z 20015G20KT 35/19 A2996 RMK A01 T03540191  RH  041%=      5-min Rain = 0
KGDS 171725Z 19014KT 35/19 A2996 RMK A01 T03540194  RH  041%=      5-min Rain = 0
KGDS 171730Z 18013G19KT 35/19 A2996 RMK A01 T03530194  RH  042%=      5-min Rain = 0
KGDS 171735Z 20015G23KT 36/19 A2995 RMK A01 T03550191  RH  040%=      5-min Rain = 0
KGDS 171740Z 19015KT 35/19 A2996 RMK A01 T03540193  RH  041%=      5-min Rain = 0
KGDS 171745Z 19013G18KT 36/19 A2996 RMK A01 T03560191  RH  040%=      5-min Rain = 0
KGDS 171750Z 18018G23KT 36/18 A2995 RMK A01 T03590184  RH  038%=      5-min Rain = 0
KGDS 171755Z 19016G23KT 36/19 A2995 RMK A01 T03590186  RH  038%=      5-min Rain = 0
KGDS 171800Z 20017G26KT 37/18 A2995 RMK A01 T03650181  RH  036%=      5-min Rain = 0
KGDS 171805Z 19014G19KT 36/19 A2995 RMK A01 T03610185  RH  037%=      5-min Rain = 0
KGDS 171810Z 19014G22KT 36/18 A2995 RMK A01 T03640183  RH  037%=      5-min Rain = 0
KGDS 171815Z 19013G18KT 37/18 A2995 RMK A01 T03650184  RH  037%=      5-min Rain = 0
KGDS 171820Z 20011KT 36/18 A2994 RMK A01 T03640179  RH  036%=      5-min Rain = 0
KGDS 171825Z 20014G24KT 37/18 A2994 RMK A01 T03700184  RH  036%=      5-min Rain = 0
KGDS 171830Z 18018G23KT 37/18 A2994 RMK A01 T03690179  RH  035%=      5-min Rain = 0
KGDS 171835Z 17016KT 37/18 A2994 RMK A01 T03690181  RH  035%=      5-min Rain = 0
KGDS 171840Z 18012G18KT 38/18 A2994 RMK A01 T03750183  RH  034%=      5-min Rain = 0
KGDS 171845Z 19016G22KT 37/18 A2994 RMK A01 T03700180  RH  035%=      5-min Rain = 0
KGDS 171850Z 17016G22KT 37/18 A2993 RMK A01 T03700176  RH  034%=      5-min Rain = 0
KGDS 171855Z 18017G26KT 38/18 A2993 RMK A01 T03760176  RH  033%=      5-min Rain = 0
KGDS 171900Z 16017G23KT 37/18 A2993 RMK A01 T03740176  RH  033%=      5-min Rain = 0
KGDS 171905Z 17016G21KT 37/18 A2993 RMK A01 T03740175  RH  033%=      5-min Rain = 0
KGDS 171910Z 17016G22KT 37/18 A2993 RMK A01 T03730175  RH  033%=      5-min Rain = 0
KGDS 171915Z 19014G21KT 38/17 A2993 RMK A01 T03760173  RH  032%=      5-min Rain = 0
KGDS 171920Z 18015G20KT 38/17 A2993 RMK A01 T03800174  RH  032%=      5-min Rain = 0
KGDS 171925Z 17013G20KT 38/17 A2993 RMK A01 T03770169  RH  031%=      5-min Rain = 0
KGDS 171930Z 18018G25KT 38/17 A2992 RMK A01 T03800165  RH  030%=      5-min Rain = 0
KGDS 171935Z 18014G20KT 38/17 A2992 RMK A01 T03760165  RH  031%=      5-min Rain = 0
KGDS 171940Z 16012G18KT 38/17 A2992 RMK A01 T03790167  RH  030%=      5-min Rain = 0
KGDS 171945Z 19018G24KT 38/16 A2992 RMK A01 T03800161  RH  029%=      5-min Rain = 0
KGDS 171950Z 20014G20KT 38/16 A2991 RMK A01 T03800161  RH  029%=      5-min Rain = 0
KGDS 171955Z 18017G25KT 38/17 A2991 RMK A01 T03810166  RH  030%=      5-min Rain = 0
KGDS 172000Z 16018G24KT 38/16 A2991 RMK A01 T03800164  RH  029%=      5-min Rain = 0
KGDS 172005Z 18017G25KT 38/16 A2991 RMK A01 T03810164  RH  029%=      5-min Rain = 0
KGDS 172010Z 18016G22KT 38/17 A2991 RMK A01 T03840167  RH  029%=      5-min Rain = 0
KGDS 172015Z 19017G22KT 39/17 A299 RMK A01 T03860166  RH  029%=      5-min Rain = 0
KGDS 172020Z 19014G21KT 38/16 A299 RMK A01 T03820162  RH  029%=      5-min Rain = 0
KGDS 172025Z 18017KT 39/17 A299 RMK A01 T03880167  RH  029%=      5-min Rain = 0
KGDS 172030Z 18016G27KT 39/16 A299 RMK A01 T03860162  RH  028%=      5-min Rain = 0
KGDS 172035Z 19014G22KT 39/17 A299 RMK A01 T03860165  RH  029%=      5-min Rain = 0
KGDS 172040Z 18016G21KT 39/17 A2989 RMK A01 T03880168  RH  029%=      5-min Rain = 0
KGDS 172045Z 19016G22KT 38/17 A2989 RMK A01 T03840165  RH  029%=      5-min Rain = 0
KGDS 172050Z 19015G20KT 39/16 A2989 RMK A01 T03870163  RH  028%=      5-min Rain = 0
KGDS 172055Z 17016G21KT 38/17 A2989 RMK A01 T03790168  RH  030%=      5-min Rain = 0
KGDS 172100Z 18018G26KT 38/17 A2989 RMK A01 T03830166  RH  029%=      5-min Rain = 0
KGDS 172105Z 19015G21KT 39/17 A2989 RMK A01 T03850168  RH  029%=      5-min Rain = 0
KGDS 172110Z 18014G20KT 39/17 A2988 RMK A01 T03880174  RH  030%=      5-min Rain = 0
KGDS 172115Z 17017KT 39/17 A2988 RMK A01 T03850171  RH  030%=      5-min Rain = 0
KGDS 172120Z 18014G21KT 38/17 A2988 RMK A01 T03760171  RH  032%=      5-min Rain = 0
KGDS 172125Z 17019G24KT 38/17 A2988 RMK A01 T03840173  RH  031%=      5-min Rain = 0
KGDS 172130Z 18015G21KT 39/17 A2988 RMK A01 T03850171  RH  030%=      5-min Rain = 0
KGDS 172135Z 16015G20KT 38/17 A2988 RMK A01 T03840173  RH  031%=      5-min Rain = 0
KGDS 172140Z 18016KT 39/17 A2988 RMK A01 T03860170  RH  030%=      5-min Rain = 0
KGDS 172145Z 17016KT 38/17 A2988 RMK A01 T03810170  RH  031%=      5-min Rain = 0
KGDS 172150Z 16017G24KT 38/17 A2988 RMK A01 T03840168  RH  030%=      5-min Rain = 0
KGDS 172155Z 16014G21KT 39/17 A2988 RMK A01 T03850168  RH  030%=      5-min Rain = 0
KGDS 172200Z 17017G22KT 39/17 A2987 RMK A01 T03880167  RH  029%=      5-min Rain = 0
KGDS 172205Z 18016G22KT 38/16 A2987 RMK A01 T03840164  RH  029%=      5-min Rain = 0
KGDS 172210Z 17014KT 38/17 A2987 RMK A01 T03810165  RH  029%=      5-min Rain = 0
KGDS 172215Z 17019G24KT 38/16 A2987 RMK A01 T03830163  RH  029%=      5-min Rain = 0
KGDS 172220Z 16016G23KT 38/16 A2987 RMK A01 T03810163  RH  029%=      5-min Rain = 0
KGDS 172225Z 17015G24KT 38/16 A2987 RMK A01 T03800164  RH  029%=      5-min Rain = 0
KGDS 172230Z 16016G21KT 38/16 A2987 RMK A01 T03800164  RH  030%=      5-min Rain = 0
KGDS 172235Z 16017G24KT 38/16 A2987 RMK A01 T03810162  RH  029%=      5-min Rain = 0
KGDS 172240Z 16017G22KT 38/16 A2986 RMK A01 T03800162  RH  029%=      5-min Rain = 0
KGDS 172245Z 16016G21KT 38/16 A2986 RMK A01 T03780163  RH  029%=      5-min Rain = 0
KGDS 172250Z 15013G19KT 38/16 A2986 RMK A01 T03810164  RH  029%=      5-min Rain = 0
KGDS 172255Z 15014G21KT 38/16 A2986 RMK A01 T03790162  RH  029%=      5-min Rain = 0
KGDS 172300Z 16016KT 38/16 A2986 RMK A01 T03790161  RH  029%=      5-min Rain = 0
KGDS 172305Z 17018G24KT 38/16 A2986 RMK A01 T03800162  RH  029%=      5-min Rain = 0
KGDS 172310Z 16018G24KT 38/16 A2986 RMK A01 T03770162  RH  030%=      5-min Rain = 0
KGDS 172315Z 16017G22KT 37/16 A2986 RMK A01 T03730159  RH  030%=      5-min Rain = 0
KGDS 172320Z 15017G23KT 37/16 A2986 RMK A01 T03740157  RH  029%=      5-min Rain = 0
KGDS 172325Z 16021G28KT 37/15 A2985 RMK A01 T03730153  RH  029%=      5-min Rain = 0
KGDS 172330Z 16017G23KT 37/15 A2985 RMK A01 T03740154  RH  029%=      5-min Rain = 0
KGDS 172335Z 15017G22KT 37/15 A2985 RMK A01 T03730154  RH  029%=      5-min Rain = 0
KGDS 172340Z 15018G25KT 37/15 A2985 RMK A01 T03720153  RH  029%=      5-min Rain = 0
KGDS 172345Z 16019G27KT 37/15 A2985 RMK A01 T03710153  RH  029%=      5-min Rain = 0
KGDS 172350Z 15017G22KT 37/15 A2985 RMK A01 T03710152  RH  029%=      5-min Rain = 0
KGDS 172355Z 16017G23KT 37/15 A2985 RMK A01 T03710151  RH  028%=      5-min Rain = 0
KGDS 180000Z 16015KT 37/15 A2985 RMK A01 T03710152  RH  029%=      5-min Rain = 0
KGDS 180005Z 15018G23KT 37/15 A2985 RMK A01 T03680154  RH  029%=      5-min Rain = 0
KGDS 180010Z 16015G22KT 37/15 A2985 RMK A01 T03680154  RH  030%=      5-min Rain = 0
KGDS 180015Z 17018KT 37/15 A2985 RMK A01 T03670150  RH  029%=      5-min Rain = 0
KGDS 180020Z 17018KT 37/15 A2985 RMK A01 T03660148  RH  029%=      5-min Rain = 0
KGDS 180025Z 17016G22KT 37/16 A2985 RMK A01 T03660155  RH  030%=      5-min Rain = 0
KGDS 180030Z 16017G22KT 36/16 A2985 RMK A01 T03640158  RH  031%=      5-min Rain = 0
KGDS 180035Z 15019KT 36/16 A2985 RMK A01 T03620158  RH  031%=      5-min Rain = 0
KGDS 180040Z 16017G24KT 36/16 A2985 RMK A01 T03610160  RH  032%=      5-min Rain = 0
KGDS 180045Z 15018G23KT 36/16 A2985 RMK A01 T03590160  RH  032%=      5-min Rain = 0
KGDS 180050Z 16018KT 36/16 A2985 RMK A01 T03580160  RH  032%=      5-min Rain = 0
KGDS 180055Z 16018KT 36/16 A2985 RMK A01 T03570160  RH  033%=      5-min Rain = 0
KGDS 180100Z 16015KT 36/16 A2985 RMK A01 T03560161  RH  033%=      5-min Rain = 0
KGDS 180105Z 16015G21KT 36/16 A2985 RMK A01 T03550161  RH  033%=      5-min Rain = 0
KGDS 180110Z 16017G24KT 35/16 A2985 RMK A01 T03530160  RH  033%=      5-min Rain = 0
KGDS 180115Z 15018KT 35/16 A2985 RMK A01 T03520160  RH  034%=      5-min Rain = 0
KGDS 180120Z 15016KT 35/16 A2985 RMK A01 T03500161  RH  034%=      5-min Rain = 0
KGDS 180125Z 16015KT 35/16 A2985 RMK A01 T03480161  RH  034%=      5-min Rain = 0
KGDS 180130Z 15015KT 35/16 A2985 RMK A01 T03460163  RH  035%=      5-min Rain = 0
KGDS 180135Z 15013G18KT 34/17 A2986 RMK A01 T03430165  RH  036%=      5-min Rain = 0
KGDS 180140Z 15016G21KT 34/17 A2986 RMK A01 T03410167  RH  037%=      5-min Rain = 0
KGDS 180145Z 15014KT 34/17 A2986 RMK A01 T03390167  RH  038%=      5-min Rain = 0
KGDS 180150Z 15014KT 34/17 A2986 RMK A01 T03370168  RH  038%=      5-min Rain = 0
KGDS 180155Z 15012KT 34/17 A2986 RMK A01 T03350171  RH  040%=      5-min Rain = 0
KGDS 180200Z 14012KT 33/17 A2986 RMK A01 T03320173  RH  041%=      5-min Rain = 0
KGDS 180205Z 14013KT 33/18 A2986 RMK A01 T03300178  RH  043%=      5-min Rain = 0
KGDS 180210Z 15013KT 33/18 A2986 RMK A01 T03270179  RH  044%=      5-min Rain = 0
KGDS 180215Z 15012KT 33/18 A2987 RMK A01 T03260180  RH  044%=      5-min Rain = 0
KGDS 180220Z 15013KT 33/18 A2987 RMK A01 T03250180  RH  045%=      5-min Rain = 0
KGDS 180225Z 15015KT 32/18 A2987 RMK A01 T03240180  RH  045%=      5-min Rain = 0
KGDS 180230Z 15015KT 32/18 A2987 RMK A01 T03230180  RH  045%=      5-min Rain = 0
KGDS 180235Z 15014G20KT 32/18 A2987 RMK A01 T03220180  RH  045%=      5-min Rain = 0
KGDS 180240Z 15014G19KT 32/18 A2987 RMK A01 T03200180  RH  046%=      5-min Rain = 0
KGDS 180245Z 15015KT 32/18 A2987 RMK A01 T03200180  RH  046%=      5-min Rain = 0
KGDS 180250Z 15013KT 32/18 A2988 RMK A01 T03190179  RH  046%=      5-min Rain = 0
KGDS 180255Z 15013KT 32/18 A2988 RMK A01 T03180179  RH  046%=      5-min Rain = 0
KGDS 180300Z 15013KT 32/18 A2988 RMK A01 T03170178  RH  046%=      5-min Rain = 0
KGDS 180305Z 15013KT 32/18 A2988 RMK A01 T03160178  RH  046%=      5-min Rain = 0
KGDS 180310Z 15013G18KT 32/18 A2989 RMK A01 T03160178  RH  046%=      5-min Rain = 0
KGDS 180315Z 15013G18KT 32/18 A2989 RMK A01 T03150177  RH  046%=      5-min Rain = 0
KGDS 180320Z 15013KT 31/18 A2989 RMK A01 T03140177  RH  046%=      5-min Rain = 0
KGDS 180325Z 15013KT 31/18 A2989 RMK A01 T03130176  RH  046%=      5-min Rain = 0
KGDS 180330Z 15013G18KT 31/18 A2989 RMK A01 T03120176  RH  047%=      5-min Rain = 0
KGDS 180335Z 15014KT 31/18 A2989 RMK A01 T03110176  RH  047%=      5-min Rain = 0
KGDS 180340Z 15013KT 31/18 A2989 RMK A01 T03100176  RH  047%=      5-min Rain = 0
KGDS 180345Z 15013KT 31/18 A2989 RMK A01 T03090176  RH  047%=      5-min Rain = 0
KGDS 180350Z 15013KT 31/18 A2989 RMK A01 T03080176  RH  048%=      5-min Rain = 0
KGDS 180355Z 15012G17KT 31/18 A2989 RMK A01 T03060176  RH  048%=      5-min Rain = 0
KGDS 180400Z 15013G18KT 31/18 A2989 RMK A01 T03060176  RH  048%=      5-min Rain = 0
KGDS 180405Z 15013KT 31/18 A2989 RMK A01 T03050176  RH  049%=      5-min Rain = 0
KGDS 180410Z 15014KT 30/18 A2989 RMK A01 T03040176  RH  049%=      5-min Rain = 0
KGDS 180415Z 15013G18KT 30/18 A2989 RMK A01 T03030177  RH  049%=      5-min Rain = 0
KGDS 180420Z 15013KT 30/18 A2989 RMK A01 T03020177  RH  050%=      5-min Rain = 0
KGDS 180425Z 15014KT 30/18 A2989 RMK A01 T03020177  RH  050%=      5-min Rain = 0
KGDS 180430Z 15014KT 30/18 A2989 RMK A01 T03010178  RH  050%=      5-min Rain = 0
KGDS 180435Z 16014KT 30/18 A2989 RMK A01 T03000178  RH  050%=      5-min Rain = 0
KGDS 180440Z 16013KT 30/18 A2989 RMK A01 T02990178  RH  051%=      5-min Rain = 0
KGDS 180445Z 16013KT 30/18 A2989 RMK A01 T02980178  RH  051%=      5-min Rain = 0
KGDS 180450Z 16012G17KT 30/18 A299 RMK A01 T02970178  RH  051%=      5-min Rain = 0
KGDS 180455Z 16012KT 30/18 A299 RMK A01 T02960178  RH  052%=      5-min Rain = 0

Page generated in 0.0093 seconds.